createdAt,value
2022-10-28T00:02:15.517Z,59.74
2022-10-28T00:04:43.133Z,59.48
2022-10-28T00:07:12.027Z,59.73
2022-10-28T00:09:39.574Z,59.60
2022-10-28T00:12:07.308Z,59.59
2022-10-28T00:14:34.871Z,59.72
2022-10-28T00:17:02.462Z,59.65
2022-10-28T00:19:30.630Z,59.68
2022-10-28T00:21:58.209Z,59.60
2022-10-28T00:24:27.325Z,59.59
2022-10-28T00:26:54.840Z,59.65
2022-10-28T00:29:22.577Z,59.65
2022-10-28T00:31:50.814Z,59.75
2022-10-28T00:34:19.616Z,59.97
2022-10-28T00:36:47.482Z,59.67
2022-10-28T00:39:16.196Z,59.69
2022-10-28T00:41:46.708Z,59.62
2022-10-28T00:44:51.914Z,59.57
2022-10-28T00:47:29.720Z,59.60
2022-10-28T00:49:58.628Z,59.71
2022-10-28T00:52:27.714Z,59.57
2022-10-28T00:54:55.235Z,59.69
2022-10-28T00:57:26.067Z,59.78
2022-10-28T00:59:54.110Z,59.52
2022-10-28T01:02:21.890Z,59.62
2022-10-28T01:04:49.552Z,59.67
2022-10-28T01:07:17.173Z,59.57
2022-10-28T01:09:44.732Z,59.64
2022-10-28T01:12:17.498Z,59.46
2022-10-28T01:14:52.864Z,59.71
2022-10-28T01:17:28.653Z,59.51
2022-10-28T01:20:30.357Z,59.72
2022-10-28T01:22:59.713Z,59.75
2022-10-28T01:25:50.515Z,59.67
2022-10-28T01:28:25.136Z,59.68
2022-10-28T01:31:09.401Z,59.72
2022-10-28T01:33:37.363Z,59.64
2022-10-28T01:36:08.553Z,59.68
2022-10-28T01:38:37.079Z,59.58
2022-10-28T01:41:08.525Z,59.69
2022-10-28T01:43:39.412Z,59.73
2022-10-28T01:46:09.314Z,59.69
2022-10-28T01:48:38.984Z,59.51
2022-10-28T01:51:08.817Z,59.72
2022-10-28T01:53:38.124Z,59.66
2022-10-28T01:56:08.537Z,59.56
2022-10-28T01:58:36.082Z,59.70
2022-10-28T02:01:04.763Z,59.57
2022-10-28T02:03:33.770Z,59.52
2022-10-28T02:06:01.944Z,59.70
2022-10-28T02:08:44.704Z,59.88
2022-10-28T02:11:20.978Z,59.75
2022-10-28T02:13:52.785Z,59.71
2022-10-28T02:16:22.434Z,59.74
2022-10-28T02:18:55.470Z,59.70
2022-10-28T02:21:26.272Z,59.66
2022-10-28T02:23:54.362Z,59.76
2022-10-28T02:26:23.030Z,59.63
2022-10-28T02:28:51.808Z,59.65
2022-10-28T02:31:22.061Z,59.71
2022-10-28T02:33:51.313Z,59.73
2022-10-28T02:36:20.229Z,59.66
2022-10-28T02:38:49.061Z,59.70
2022-10-28T02:41:18.503Z,59.66
2022-10-28T02:43:46.044Z,59.84
2022-10-28T02:46:13.611Z,59.59
2022-10-28T02:48:42.031Z,59.60
2022-10-28T02:51:11.466Z,59.63
2022-10-28T02:53:45.977Z,59.62
2022-10-28T02:56:13.537Z,59.56
2022-10-28T02:58:41.229Z,59.67
2022-10-28T03:01:09.000Z,59.52
2022-10-28T03:03:36.681Z,59.75
2022-10-28T03:06:04.465Z,59.65
2022-10-28T03:08:32.072Z,59.75
2022-10-28T03:11:00.965Z,59.76
2022-10-28T03:13:28.493Z,59.72
2022-10-28T03:15:56.141Z,59.79
2022-10-28T03:18:23.686Z,59.65
2022-10-28T03:20:54.245Z,59.65
2022-10-28T03:23:24.350Z,59.70
2022-10-28T03:25:51.913Z,59.78
2022-10-28T03:28:20.847Z,59.70
2022-10-28T03:30:48.416Z,59.78
2022-10-28T03:33:16.028Z,59.70
2022-10-28T03:35:43.623Z,59.67
2022-10-28T03:38:11.249Z,59.75
2022-10-28T03:40:38.798Z,59.78
2022-10-28T03:43:06.373Z,59.71
2022-10-28T03:45:35.275Z,59.70
2022-10-28T03:48:02.848Z,59.67
2022-10-28T03:50:30.385Z,59.78
2022-10-28T03:52:57.957Z,59.67
2022-10-28T03:55:25.861Z,59.63
2022-10-28T03:57:53.736Z,59.71
2022-10-28T04:00:21.681Z,59.57
2022-10-28T04:02:52.476Z,59.78
2022-10-28T04:05:20.720Z,59.78
2022-10-28T04:07:48.312Z,59.84
2022-10-28T04:10:16.009Z,59.80
2022-10-28T04:12:43.681Z,59.62
2022-10-28T04:15:11.560Z,59.62
2022-10-28T04:17:39.074Z,59.73
2022-10-28T04:20:09.687Z,59.69
2022-10-28T04:22:37.231Z,59.81
2022-10-28T04:25:05.456Z,59.79
2022-10-28T04:27:33.098Z,59.72
2022-10-28T04:30:00.696Z,59.84
2022-10-28T04:32:28.247Z,59.78
2022-10-28T04:34:55.834Z,59.88
2022-10-28T04:37:24.802Z,59.75
2022-10-28T04:39:52.361Z,59.77
2022-10-28T04:42:19.884Z,59.78
2022-10-28T04:44:47.434Z,59.64
2022-10-28T04:47:14.957Z,59.81
2022-10-28T04:49:42.528Z,59.87
2022-10-28T04:52:13.349Z,59.72
2022-10-28T04:54:44.613Z,59.63
2022-10-28T04:57:12.156Z,59.68
2022-10-28T04:59:39.737Z,59.55
2022-10-28T05:02:07.352Z,59.51
2022-10-28T05:04:35.035Z,59.67
2022-10-28T05:07:02.586Z,59.67
2022-10-28T05:09:30.162Z,59.71
2022-10-28T05:11:59.105Z,59.59
2022-10-28T05:14:26.705Z,59.65
2022-10-28T05:16:54.313Z,59.63
2022-10-28T05:19:21.988Z,59.73
2022-10-28T05:21:49.524Z,59.67
2022-10-28T05:24:17.060Z,59.56
2022-10-28T05:26:44.641Z,59.69
2022-10-28T05:29:13.635Z,59.56
2022-10-28T05:31:41.182Z,59.72
2022-10-28T05:34:09.206Z,59.55
2022-10-28T05:36:36.889Z,59.73
2022-10-28T05:39:04.672Z,59.75
2022-10-28T05:41:35.186Z,59.74
2022-10-28T05:44:05.850Z,59.54
2022-10-28T05:46:34.788Z,59.74
2022-10-28T05:49:02.345Z,59.62
2022-10-28T05:51:29.865Z,59.69
2022-10-28T05:53:57.429Z,59.52
2022-10-28T05:56:25.393Z,59.67
2022-10-28T05:58:52.987Z,59.54
2022-10-28T06:01:20.601Z,59.59
2022-10-28T06:03:49.600Z,59.57
2022-10-28T06:06:17.181Z,59.58
2022-10-28T06:08:44.696Z,59.64
2022-10-28T06:11:10.751Z,59.69
2022-10-28T06:13:38.383Z,59.48
2022-10-28T06:16:06.232Z,59.63
2022-10-28T06:18:34.070Z,59.54
2022-10-28T06:21:03.630Z,59.64
2022-10-28T06:23:31.165Z,59.71
2022-10-28T06:25:59.195Z,59.42
2022-10-28T06:28:26.867Z,59.73
2022-10-28T06:30:54.441Z,59.72
2022-10-28T06:33:21.965Z,59.67
2022-10-28T06:35:49.492Z,59.57
2022-10-28T06:38:19.017Z,59.71
2022-10-28T06:40:49.059Z,59.56
2022-10-28T06:43:19.872Z,59.56
2022-10-28T06:45:52.121Z,59.48
2022-10-28T06:48:21.208Z,59.60
2022-10-28T06:50:48.776Z,59.48
2022-10-28T06:53:16.501Z,59.67
2022-10-28T06:55:48.787Z,59.56
2022-10-28T06:58:16.470Z,59.57
2022-10-28T07:00:44.061Z,59.44
2022-10-28T07:03:11.827Z,59.55
2022-10-28T07:05:39.346Z,59.53
2022-10-28T07:08:07.138Z,59.65
2022-10-28T07:10:34.904Z,59.50
2022-10-28T07:13:03.826Z,59.53
2022-10-28T07:15:31.621Z,59.56
2022-10-28T07:17:59.848Z,59.53
2022-10-28T07:20:28.257Z,59.53
2022-10-28T07:22:58.813Z,59.67
2022-10-28T07:25:26.806Z,59.58
2022-10-28T07:27:54.830Z,59.61
2022-10-28T07:30:24.136Z,59.54
2022-10-28T07:32:51.995Z,59.59
2022-10-28T07:35:19.846Z,59.63
2022-10-28T07:37:47.378Z,59.42
2022-10-28T07:40:15.023Z,59.45
2022-10-28T07:42:42.639Z,59.54
2022-10-28T07:45:10.734Z,59.57
2022-10-28T07:47:39.969Z,59.59
2022-10-28T07:50:08.438Z,59.50
2022-10-28T07:52:36.126Z,59.57
2022-10-28T07:55:03.926Z,59.54
2022-10-28T07:57:31.602Z,59.49
2022-10-28T07:59:59.242Z,59.42
2022-10-28T08:02:27.002Z,59.47
2022-10-28T08:04:56.864Z,59.37
2022-10-28T08:07:24.443Z,59.49
2022-10-28T08:09:53.262Z,59.46
2022-10-28T08:12:20.835Z,59.40
2022-10-28T08:14:48.423Z,59.42
2022-10-28T08:17:16.003Z,59.47
2022-10-28T08:19:43.560Z,59.40
2022-10-28T08:22:12.519Z,59.47
2022-10-28T08:24:40.207Z,59.49
2022-10-28T08:27:07.970Z,59.41
2022-10-28T08:29:35.497Z,59.53
2022-10-28T08:32:03.062Z,59.39
2022-10-28T08:34:31.259Z,59.47
2022-10-28T08:36:58.899Z,59.33
2022-10-28T08:39:27.791Z,59.34
2022-10-28T08:41:59.269Z,59.34
2022-10-28T08:45:06.843Z,59.53
2022-10-28T08:47:39.809Z,59.40
2022-10-28T08:50:13.675Z,59.41
2022-10-28T08:52:43.183Z,59.20
2022-10-28T08:55:15.351Z,59.51
2022-10-28T08:57:44.223Z,59.21
2022-10-28T09:00:19.480Z,59.19
2022-10-28T09:02:54.959Z,59.01
2022-10-28T09:05:23.842Z,59.04
2022-10-28T09:07:51.404Z,58.87
2022-10-28T09:10:26.355Z,58.71
2022-10-28T09:12:56.081Z,58.75
2022-10-28T09:15:29.378Z,58.87
2022-10-28T09:17:58.241Z,58.88
2022-10-28T09:20:30.716Z,58.99
2022-10-28T09:22:59.281Z,58.74
2022-10-28T09:25:32.529Z,58.91
2022-10-28T09:28:07.438Z,58.84
2022-10-28T09:30:40.951Z,58.90
2022-10-28T09:33:15.235Z,58.90
2022-10-28T09:35:44.352Z,58.71
2022-10-28T09:38:16.044Z,58.55
2022-10-28T09:40:46.424Z,58.73
2022-10-28T09:43:19.497Z,58.86
2022-10-28T09:45:48.042Z,58.77
2022-10-28T09:48:17.909Z,58.81
2022-10-28T09:50:45.531Z,58.73
2022-10-28T09:53:15.882Z,58.66
2022-10-28T09:55:44.806Z,58.78
2022-10-28T09:58:12.452Z,58.75
2022-10-28T10:00:40.002Z,58.90
2022-10-28T10:03:07.582Z,58.63
2022-10-28T10:05:38.420Z,58.80
2022-10-28T10:08:06.666Z,58.76
2022-10-28T10:10:37.484Z,58.68
2022-10-28T10:13:06.465Z,59.07
2022-10-28T10:15:36.796Z,61.16
2022-10-28T10:18:05.823Z,62.91
2022-10-28T10:20:47.747Z,62.26
2022-10-28T10:23:23.375Z,63.00
2022-10-28T10:25:55.571Z,63.29
2022-10-28T10:28:24.508Z,63.81
2022-10-28T10:30:53.451Z,63.42
2022-10-28T10:33:21.839Z,63.65
2022-10-28T10:35:59.038Z,63.28
2022-10-28T10:38:28.171Z,63.21
2022-10-28T10:40:55.773Z,62.77
2022-10-28T10:43:32.113Z,62.59
2022-10-28T10:46:04.484Z,62.67
2022-10-28T10:48:33.833Z,62.30
2022-10-28T10:51:05.846Z,62.28
2022-10-28T10:53:33.412Z,62.51
2022-10-28T10:56:01.718Z,62.26
2022-10-28T10:58:32.012Z,62.28
2022-10-28T11:01:00.727Z,62.12
2022-10-28T11:03:29.313Z,62.08
2022-10-28T11:06:18.383Z,61.99
2022-10-28T11:08:45.353Z,61.98
2022-10-28T11:11:14.459Z,61.98
2022-10-28T11:13:46.143Z,61.95
2022-10-28T11:16:21.794Z,61.85
2022-10-28T11:18:50.267Z,61.79
2022-10-28T11:21:42.957Z,61.76
2022-10-28T11:24:22.127Z,61.48
2022-10-28T11:26:52.878Z,61.64
2022-10-28T11:29:21.812Z,61.79
2022-10-28T11:32:06.667Z,61.69
2022-10-28T11:35:00.121Z,61.82
2022-10-28T11:37:33.554Z,61.71
2022-10-28T11:40:06.315Z,61.53
2022-10-28T11:42:36.688Z,61.51
2022-10-28T11:45:07.172Z,61.46
2022-10-28T11:48:07.847Z,61.37
2022-10-28T11:50:39.739Z,61.26
2022-10-28T11:53:27.427Z,61.31
2022-10-28T11:55:57.235Z,61.12
2022-10-28T11:58:31.280Z,61.26
2022-10-28T12:01:07.815Z,61.33
2022-10-28T12:03:44.712Z,61.26
2022-10-28T12:06:16.785Z,61.11
2022-10-28T12:08:52.370Z,61.12
2022-10-28T12:11:25.187Z,61.11
2022-10-28T12:13:57.905Z,61.13
2022-10-28T12:16:30.920Z,61.03
2022-10-28T12:19:00.116Z,60.92
2022-10-28T12:21:31.130Z,60.93
2022-10-28T12:23:59.228Z,60.96
2022-10-28T12:26:34.970Z,61.18
2022-10-28T12:29:03.297Z,60.81
2022-10-28T12:31:33.684Z,61.06
2022-10-28T12:34:02.354Z,60.88
2022-10-28T12:36:33.661Z,60.83
2022-10-28T12:39:02.634Z,60.84
2022-10-28T12:41:44.477Z,60.90
2022-10-28T12:44:12.952Z,60.77
2022-10-28T12:49:23.358Z,60.90
2022-10-28T12:51:50.904Z,60.83
2022-10-28T12:54:22.274Z,60.91
2022-10-28T12:56:52.694Z,60.75
2022-10-28T12:59:24.051Z,60.69
2022-10-28T13:01:53.091Z,60.83
2022-10-28T13:04:20.764Z,60.83
2022-10-28T13:06:58.773Z,60.87
2022-10-28T13:09:37.968Z,60.73
2022-10-28T13:12:35.987Z,60.67
2022-10-28T13:15:35.287Z,61.03
2022-10-28T13:18:16.447Z,60.73
2022-10-28T13:20:47.571Z,60.81
2022-10-28T13:23:22.325Z,60.76
2022-10-28T13:25:57.250Z,60.68
2022-10-28T13:28:25.707Z,60.73
2022-10-28T13:30:54.816Z,60.74
2022-10-28T13:33:25.281Z,60.83
2022-10-28T13:38:26.348Z,60.70
2022-10-28T13:41:11.664Z,60.68
2022-10-28T13:43:59.394Z,60.74
2022-10-28T13:47:01.395Z,60.70
2022-10-28T13:49:30.553Z,60.70
2022-10-28T13:52:01.494Z,60.78
2022-10-28T13:54:31.533Z,60.66
2022-10-28T13:57:03.850Z,60.73
2022-10-28T13:59:50.900Z,60.59
2022-10-28T14:02:35.319Z,60.70
2022-10-28T14:05:06.219Z,60.69
2022-10-28T14:07:34.579Z,60.72
2022-10-28T14:10:19.249Z,60.60
2022-10-28T14:12:48.679Z,60.72
2022-10-28T14:15:19.130Z,60.53
2022-10-28T14:17:48.751Z,60.60
2022-10-28T14:20:29.513Z,60.54
2022-10-28T14:22:57.206Z,60.71
2022-10-28T14:26:00.078Z,60.59
2022-10-28T14:28:56.071Z,60.54
2022-10-28T14:31:44.832Z,60.62
2022-10-28T14:34:32.006Z,60.72
2022-10-28T14:37:04.264Z,60.67
2022-10-28T14:39:38.951Z,60.56
2022-10-28T14:42:21.872Z,60.60
2022-10-28T14:45:01.799Z,60.59
2022-10-28T14:47:44.855Z,60.63
2022-10-28T14:50:17.619Z,60.58
2022-10-28T14:52:46.588Z,60.63
2022-10-28T14:55:21.482Z,60.53
2022-10-28T14:57:49.032Z,60.54
2022-10-28T15:00:18.633Z,60.47
2022-10-28T15:02:46.606Z,60.43
2022-10-28T15:05:15.985Z,60.49
2022-10-28T15:07:43.533Z,60.57
2022-10-28T15:10:19.402Z,60.42
2022-10-28T15:12:48.852Z,60.56
2022-10-28T15:15:18.426Z,60.55
2022-10-28T15:17:46.005Z,60.63
2022-10-28T15:20:19.052Z,60.46
2022-10-28T15:22:47.081Z,60.50
2022-10-28T15:25:15.189Z,60.55
2022-10-28T15:27:46.464Z,60.57
2022-10-28T15:30:15.596Z,60.59
2022-10-28T15:32:43.156Z,60.52
2022-10-28T15:35:37.998Z,60.29
2022-10-28T15:38:25.631Z,60.45
2022-10-28T15:40:53.196Z,60.39
2022-10-28T15:43:23.178Z,60.44
2022-10-28T15:45:50.722Z,60.36
2022-10-28T15:48:21.518Z,60.53
2022-10-28T15:51:11.033Z,60.43
2022-10-28T15:53:39.795Z,60.29
2022-10-28T15:56:24.050Z,60.34
2022-10-28T15:59:15.641Z,60.18
2022-10-28T16:01:43.262Z,60.33
2022-10-28T16:04:44.815Z,60.27
2022-10-28T16:07:12.371Z,60.42
2022-10-28T16:09:44.192Z,60.43
2022-10-28T16:12:14.420Z,60.28
2022-10-28T16:14:43.592Z,60.33
2022-10-28T16:17:15.346Z,60.30
2022-10-28T16:19:45.423Z,60.28
2022-10-28T16:22:13.812Z,60.26
2022-10-28T16:24:41.423Z,60.41
2022-10-28T16:27:19.538Z,60.43
2022-10-28T16:29:48.606Z,60.35
2022-10-28T16:32:16.575Z,60.46
2022-10-28T16:34:44.178Z,60.27
2022-10-28T16:37:20.580Z,60.35
2022-10-28T16:39:48.157Z,60.48
2022-10-28T16:42:15.839Z,60.58
2022-10-28T16:44:43.423Z,60.52
2022-10-28T16:47:13.677Z,60.54
2022-10-28T16:49:41.268Z,60.54
2022-10-28T16:52:12.925Z,60.36
2022-10-28T16:54:40.476Z,60.32
2022-10-28T16:57:08.032Z,60.11
2022-10-28T16:59:35.572Z,59.79
2022-10-28T17:02:03.235Z,59.21
2022-10-28T17:04:32.238Z,59.30
2022-10-28T17:06:59.826Z,59.19
2022-10-28T17:09:27.383Z,59.15
2022-10-28T17:11:55.036Z,59.06
2022-10-28T17:14:22.591Z,58.95
2022-10-28T17:16:50.248Z,58.98
2022-10-28T17:19:17.810Z,59.00
2022-10-28T17:21:51.446Z,59.09
2022-10-28T17:24:20.280Z,58.94
2022-10-28T17:26:47.857Z,59.12
2022-10-28T17:29:15.471Z,58.91
2022-10-28T17:31:43.042Z,58.99
2022-10-28T17:34:10.603Z,58.94
2022-10-28T17:36:38.144Z,59.13
2022-10-28T17:39:11.145Z,59.13
2022-10-28T17:41:41.255Z,59.20
2022-10-28T17:44:08.854Z,59.36
2022-10-28T17:46:36.399Z,59.51
2022-10-28T17:49:08.398Z,59.12
2022-10-28T17:51:36.857Z,59.30
2022-10-28T17:54:06.047Z,59.23
2022-10-28T17:56:34.983Z,59.42
2022-10-28T17:59:02.550Z,59.50
2022-10-28T18:01:30.531Z,59.49
2022-10-28T18:03:58.287Z,59.24
2022-10-28T18:06:26.008Z,59.61
2022-10-28T18:08:54.222Z,59.53
2022-10-28T18:11:21.952Z,59.69
2022-10-28T18:13:52.812Z,59.95
2022-10-28T18:16:21.549Z,60.01
2022-10-28T18:18:49.139Z,59.77
2022-10-28T18:21:16.718Z,59.71
2022-10-28T18:23:44.320Z,59.39
2022-10-28T18:26:13.609Z,59.34
2022-10-28T18:28:41.691Z,58.97
2022-10-28T18:31:11.408Z,59.20
2022-10-28T18:33:39.295Z,58.55
2022-10-28T18:36:08.059Z,58.75
2022-10-28T18:38:35.618Z,58.36
2022-10-28T18:41:03.164Z,58.05
2022-10-28T18:43:30.750Z,57.73
2022-10-28T18:46:01.338Z,57.73
2022-10-28T18:48:30.676Z,57.88
2022-10-28T18:50:58.532Z,57.78
2022-10-28T18:53:26.109Z,57.15
2022-10-28T18:55:53.686Z,57.37
2022-10-28T18:58:21.297Z,57.05
2022-10-28T19:00:48.864Z,57.37
2022-10-28T19:03:19.052Z,56.84
2022-10-28T19:05:48.047Z,57.12
2022-10-28T19:08:15.821Z,56.76
2022-10-28T19:10:43.404Z,56.78
2022-10-28T19:13:10.965Z,56.70
2022-10-28T19:15:42.046Z,56.67
2022-10-28T19:18:09.739Z,56.61
2022-10-28T19:20:37.275Z,56.73
2022-10-28T19:23:06.262Z,56.75
2022-10-28T19:25:33.872Z,56.33
2022-10-28T19:28:01.790Z,56.50
2022-10-28T19:30:29.385Z,56.54
2022-10-28T19:32:57.339Z,56.23
2022-10-28T19:35:25.115Z,56.19
2022-10-28T19:37:53.444Z,56.32
2022-10-28T19:40:22.405Z,56.13
2022-10-28T19:42:53.778Z,56.63
2022-10-28T19:45:21.733Z,56.43
2022-10-28T19:47:49.889Z,55.93
2022-10-28T19:50:17.576Z,55.58
2022-10-28T19:52:45.168Z,55.90
2022-10-28T19:55:15.040Z,55.94
2022-10-28T19:57:45.678Z,56.23
2022-10-28T20:00:15.798Z,55.84
2022-10-28T20:02:43.539Z,55.78
2022-10-28T20:05:11.321Z,55.70
2022-10-28T20:07:38.876Z,55.66
2022-10-28T20:10:07.319Z,55.85
2022-10-28T20:12:34.939Z,55.72
2022-10-28T20:15:04.100Z,56.39
2022-10-28T20:17:31.924Z,56.37
2022-10-28T20:19:59.797Z,56.27
2022-10-28T20:22:27.390Z,56.52
2022-10-28T20:24:54.991Z,56.66
2022-10-28T20:27:22.850Z,56.77
2022-10-28T20:29:50.445Z,56.76
2022-10-28T20:32:21.426Z,57.04
2022-10-28T20:34:48.983Z,56.95
2022-10-28T20:37:16.628Z,57.07
2022-10-28T20:39:44.180Z,57.71
2022-10-28T20:42:11.715Z,57.73
2022-10-28T20:44:39.231Z,57.59
2022-10-28T20:47:06.775Z,57.77
2022-10-28T20:49:35.651Z,57.88
2022-10-28T20:52:03.255Z,57.60
2022-10-28T20:54:30.795Z,57.91
2022-10-28T20:56:58.331Z,57.83
2022-10-28T20:59:25.994Z,57.72
2022-10-28T21:01:53.591Z,57.92
2022-10-28T21:04:21.460Z,58.09
2022-10-28T21:06:50.366Z,58.14
2022-10-28T21:09:17.926Z,58.17
2022-10-28T21:11:45.608Z,58.30
2022-10-28T21:14:13.201Z,58.22
2022-10-28T21:16:40.931Z,58.54
2022-10-28T21:19:08.498Z,58.24
2022-10-28T21:21:36.039Z,58.50
2022-10-28T21:24:05.626Z,58.40
2022-10-28T21:26:33.195Z,58.60
2022-10-28T21:29:00.731Z,58.50
2022-10-28T21:31:28.292Z,58.44
2022-10-28T21:33:56.037Z,58.79
2022-10-28T21:36:23.614Z,58.62
2022-10-28T21:38:54.239Z,58.50
2022-10-28T21:41:23.328Z,58.69
2022-10-28T21:43:51.597Z,58.63
2022-10-28T21:46:19.429Z,58.66
2022-10-28T21:48:47.036Z,58.73
2022-10-28T21:51:15.978Z,58.68
2022-10-28T21:53:43.713Z,58.74
2022-10-28T21:56:16.524Z,58.89
2022-10-28T21:58:46.387Z,58.74
2022-10-28T22:01:14.822Z,58.70
2022-10-28T22:03:42.505Z,58.88
2022-10-28T22:06:10.239Z,58.91
2022-10-28T22:08:37.837Z,58.81
2022-10-28T22:11:06.640Z,58.85
2022-10-28T22:13:34.286Z,58.81
2022-10-28T22:16:04.179Z,58.85
2022-10-28T22:18:32.801Z,58.84
2022-10-28T22:21:04.679Z,58.73
2022-10-28T22:23:32.254Z,59.03
2022-10-28T22:26:01.806Z,58.87
2022-10-28T22:28:29.575Z,58.91
2022-10-28T22:30:59.579Z,58.93
2022-10-28T22:33:28.586Z,58.85
2022-10-28T22:35:59.451Z,59.02
2022-10-28T22:38:27.222Z,59.01
2022-10-28T22:41:04.928Z,58.95
2022-10-28T22:43:32.602Z,59.12
2022-10-28T22:46:00.300Z,59.19
2022-10-28T22:48:29.268Z,59.25
2022-10-28T22:50:56.851Z,59.07
2022-10-28T22:53:24.517Z,59.04
2022-10-28T22:55:53.234Z,59.09
2022-10-28T22:58:20.805Z,59.09
2022-10-28T23:00:48.378Z,59.08
2022-10-28T23:03:16.248Z,59.17
2022-10-28T23:05:45.150Z,59.12
2022-10-28T23:08:15.183Z,59.13
2022-10-28T23:10:42.781Z,59.15
2022-10-28T23:13:12.452Z,59.17
2022-10-28T23:15:40.075Z,59.16
2022-10-28T23:18:07.670Z,59.16
2022-10-28T23:20:35.586Z,59.23
2022-10-28T23:23:04.649Z,59.05
2022-10-28T23:25:32.199Z,59.16
2022-10-28T23:27:59.800Z,59.17
2022-10-28T23:30:27.361Z,59.24
2022-10-28T23:32:57.838Z,59.22
2022-10-28T23:35:25.526Z,59.16
2022-10-28T23:37:53.498Z,59.02
2022-10-28T23:40:22.706Z,59.18
2022-10-28T23:42:50.284Z,59.31
2022-10-28T23:45:17.824Z,59.38
2022-10-28T23:47:45.484Z,59.24
2022-10-28T23:50:14.782Z,59.19
2022-10-28T23:52:42.454Z,59.17
2022-10-28T23:55:10.440Z,59.31
2022-10-28T23:57:39.406Z,59.16
